createdAt,value
2022-11-07T00:03:05.394Z,24.32
2022-11-07T00:08:05.610Z,24.22
2022-11-07T00:13:05.909Z,23.61
2022-11-07T00:18:04.117Z,24.65
2022-11-07T00:23:03.503Z,24.85
2022-11-07T00:28:02.505Z,25.15
2022-11-07T00:33:01.695Z,26.02
2022-11-07T00:38:00.918Z,26.13
2022-11-07T00:43:00.156Z,24.18
2022-11-07T00:47:58.469Z,23.31
2022-11-07T00:53:00.664Z,25.56
2022-11-07T00:57:56.911Z,25.08
2022-11-07T01:02:56.230Z,26.73
2022-11-07T01:07:56.309Z,27.91
2022-11-07T01:12:54.606Z,29.10
2022-11-07T01:17:54.893Z,27.80
2022-11-07T01:22:54.087Z,28.00
2022-11-07T01:27:53.315Z,25.71
2022-11-07T01:32:53.501Z,25.32
2022-11-07T01:37:53.689Z,25.51
2022-11-07T01:42:50.888Z,26.86
2022-11-07T01:47:50.054Z,27.08
2022-11-07T01:52:50.244Z,27.40
2022-11-07T01:57:49.542Z,28.11
2022-11-07T02:02:47.989Z,29.14
2022-11-07T02:07:47.197Z,28.73
2022-11-07T02:12:47.353Z,28.41
2022-11-07T02:17:45.520Z,28.34
2022-11-07T02:22:44.832Z,28.21
2022-11-07T02:27:44.163Z,28.01
2022-11-07T02:32:43.285Z,27.09
2022-11-07T02:37:43.587Z,27.40
2022-11-07T02:42:41.907Z,28.64
2022-11-07T02:47:42.226Z,27.64
2022-11-07T02:52:40.605Z,27.57
2022-11-07T02:57:40.745Z,27.44
2022-11-07T03:02:39.004Z,27.86
2022-11-07T03:07:38.055Z,28.06
2022-11-07T03:12:37.453Z,27.80
2022-11-07T03:17:36.653Z,26.24
2022-11-07T03:22:36.804Z,24.84
2022-11-07T03:27:34.907Z,25.51
2022-11-07T03:32:34.203Z,25.01
2022-11-07T03:37:34.498Z,24.29
2022-11-07T03:42:32.793Z,24.69
2022-11-07T03:47:33.103Z,24.88
2022-11-07T03:52:32.433Z,25.21
2022-11-07T03:57:30.772Z,23.82
2022-11-07T04:02:29.978Z,24.08
2022-11-07T04:07:30.195Z,24.29
2022-11-07T04:12:28.521Z,24.30
2022-11-07T04:17:27.818Z,24.63
2022-11-07T04:22:28.972Z,25.23
2022-11-07T04:27:26.170Z,23.77
2022-11-07T04:32:26.282Z,24.12
2022-11-07T04:37:25.589Z,24.40
2022-11-07T04:42:25.931Z,24.29
2022-11-07T04:47:23.233Z,24.81
2022-11-07T04:52:22.547Z,25.22
2022-11-07T04:57:23.891Z,23.62
2022-11-07T05:02:21.264Z,24.81
2022-11-07T05:07:20.420Z,24.70
2022-11-07T05:12:19.769Z,24.29
2022-11-07T05:17:20.843Z,24.08
2022-11-07T05:22:19.084Z,23.89
2022-11-07T05:27:17.409Z,23.99
2022-11-07T05:32:16.528Z,24.30
2022-11-07T05:37:17.851Z,24.53
2022-11-07T05:42:16.126Z,24.05
2022-11-07T05:47:16.405Z,25.15
2022-11-07T05:52:13.688Z,24.21
2022-11-07T05:57:15.001Z,24.41
2022-11-07T06:02:13.445Z,24.08
2022-11-07T06:07:12.519Z,23.82
2022-11-07T06:12:11.665Z,24.32
2022-11-07T06:17:10.799Z,24.98
2022-11-07T06:22:08.964Z,24.79
2022-11-07T06:27:09.125Z,24.98
2022-11-07T06:32:07.316Z,23.79
2022-11-07T06:37:08.442Z,24.38
2022-11-07T06:42:05.555Z,24.48
2022-11-07T06:47:04.874Z,23.88
2022-11-07T06:52:04.167Z,24.07
2022-11-07T06:57:04.477Z,24.10
2022-11-07T07:02:03.861Z,25.31
2022-11-07T07:07:00.953Z,25.10
2022-11-07T07:12:01.335Z,25.82
2022-11-07T07:17:00.458Z,25.40
2022-11-07T07:22:00.773Z,24.79
2022-11-07T07:27:00.106Z,24.48
2022-11-07T07:31:59.228Z,24.07
2022-11-07T07:36:57.553Z,23.77
2022-11-07T07:41:57.873Z,23.86
2022-11-07T07:46:56.191Z,23.57
2022-11-07T07:51:55.519Z,23.97
2022-11-07T07:56:54.896Z,23.88
2022-11-07T08:01:57.053Z,23.77
2022-11-07T08:06:54.284Z,23.27
2022-11-07T08:11:53.666Z,22.70
2022-11-07T08:16:51.847Z,23.31
2022-11-07T08:21:51.938Z,23.33
2022-11-07T08:26:54.277Z,24.44
2022-11-07T08:31:50.649Z,25.84
2022-11-07T08:36:49.750Z,24.87
2022-11-07T08:41:48.115Z,26.38
2022-11-07T08:46:48.251Z,26.70
2022-11-07T08:51:47.403Z,26.21
2022-11-07T08:56:45.522Z,26.13
2022-11-07T09:02:15.187Z,28.03
2022-11-07T09:06:45.037Z,27.66
2022-11-07T09:11:43.392Z,26.98
2022-11-07T09:16:43.719Z,28.19
2022-11-07T09:21:43.037Z,29.20
2022-11-07T09:26:41.336Z,28.83
2022-11-07T09:31:42.715Z,29.34
2022-11-07T09:36:40.802Z,29.86
2022-11-07T09:41:39.098Z,30.16
2022-11-07T09:46:39.406Z,30.68
2022-11-07T09:51:37.712Z,29.80
2022-11-07T09:56:38.021Z,31.90
2022-11-07T10:01:36.527Z,30.02
2022-11-07T10:06:36.509Z,31.92
2022-11-07T10:11:35.952Z,32.53
2022-11-07T10:16:35.071Z,31.34
2022-11-07T10:21:38.714Z,32.85
2022-11-07T10:26:32.592Z,32.97
2022-11-07T10:31:32.697Z,31.16
2022-11-07T10:36:30.836Z,32.06
2022-11-07T10:41:30.424Z,33.16
2022-11-07T10:46:29.336Z,32.97
2022-11-07T10:51:28.676Z,32.48
2022-11-07T10:56:27.877Z,31.28
2022-11-07T11:01:28.177Z,32.98
2022-11-07T11:06:26.443Z,32.98
2022-11-07T11:11:26.762Z,31.70
2022-11-07T11:16:24.869Z,30.91
2022-11-07T11:21:24.283Z,30.91
2022-11-07T11:26:23.592Z,33.59
2022-11-07T11:31:22.783Z,34.19
2022-11-07T11:36:22.904Z,33.89
2022-11-07T11:41:21.246Z,32.51
2022-11-07T11:46:20.469Z,34.01
2022-11-07T11:51:19.559Z,32.91
2022-11-07T11:56:18.953Z,33.41
2022-11-07T12:01:18.235Z,33.11
2022-11-07T12:06:17.536Z,33.21
2022-11-07T12:11:16.651Z,34.21
2022-11-07T12:16:16.771Z,34.31
2022-11-07T12:21:16.063Z,34.01
2022-11-07T12:26:14.383Z,33.51
2022-11-07T12:31:13.685Z,33.23
2022-11-07T12:36:13.044Z,33.03
2022-11-07T12:41:12.191Z,33.83
2022-11-07T12:46:11.386Z,33.62
2022-11-07T12:51:10.522Z,34.53
2022-11-07T12:56:10.009Z,34.33
2022-11-07T13:01:09.379Z,34.93
2022-11-07T13:06:08.555Z,34.73
2022-11-07T13:11:07.519Z,35.13
2022-11-07T13:16:15.472Z,35.03
2022-11-07T13:21:06.313Z,35.43
2022-11-07T13:26:20.318Z,35.13
2022-11-07T13:31:07.749Z,35.73
2022-11-07T13:36:03.763Z,35.73
2022-11-07T13:41:04.040Z,36.13
2022-11-07T13:46:03.249Z,35.94
2022-11-07T13:51:02.539Z,36.66
2022-11-07T13:56:01.684Z,36.26
2022-11-07T14:01:01.197Z,36.36
2022-11-07T14:05:59.057Z,36.78
2022-11-07T14:10:59.511Z,37.59
2022-11-07T14:15:59.551Z,36.88
2022-11-07T14:20:55.772Z,37.38
2022-11-07T14:25:57.996Z,38.09
2022-11-07T14:30:55.143Z,37.79
2022-11-07T14:35:54.443Z,38.20
2022-11-07T14:40:54.559Z,38.00
2022-11-07T14:50:52.326Z,38.40
2022-11-07T14:55:56.560Z,39.23
2022-11-07T15:00:50.729Z,39.32
2022-11-07T15:05:52.128Z,39.34
2022-11-07T15:10:49.091Z,39.14
2022-11-07T15:15:47.370Z,39.95
2022-11-07T15:20:47.631Z,40.05
2022-11-07T15:25:45.857Z,39.64
2022-11-07T15:30:46.054Z,39.95
2022-11-07T15:35:45.367Z,39.95
2022-11-07T15:40:43.687Z,40.26
2022-11-07T15:45:44.666Z,40.17
2022-11-07T15:50:44.240Z,40.48
2022-11-07T15:55:42.219Z,40.39
2022-11-07T16:00:42.492Z,40.19
2022-11-07T16:05:42.401Z,40.28
2022-11-07T16:10:40.737Z,40.48
2022-11-07T16:15:39.894Z,40.48
2022-11-07T16:20:38.022Z,40.69
2022-11-07T16:25:37.346Z,40.69
2022-11-07T16:30:37.863Z,40.59
2022-11-07T16:35:36.155Z,40.48
2022-11-07T16:40:36.395Z,40.61
2022-11-07T16:45:34.345Z,40.81
2022-11-07T16:50:33.680Z,41.13
2022-11-07T16:55:33.009Z,41.01
2022-11-07T17:00:33.387Z,40.81
2022-11-07T17:05:31.396Z,41.13
2022-11-07T17:10:29.542Z,40.83
2022-11-07T17:15:33.844Z,40.92
2022-11-07T17:21:01.085Z,40.92
2022-11-07T17:25:29.245Z,40.50
2022-11-07T17:30:29.385Z,40.08
2022-11-07T17:35:32.608Z,38.31
2022-11-07T17:40:29.901Z,37.16
2022-11-07T17:45:25.389Z,36.23
2022-11-07T17:50:24.708Z,35.71
2022-11-07T17:55:24.114Z,36.01
2022-11-07T18:00:25.161Z,35.69
2022-11-07T18:05:23.063Z,35.60
2022-11-07T18:10:21.643Z,35.28
2022-11-07T18:15:20.412Z,34.25
2022-11-07T18:20:20.093Z,34.03
2022-11-07T18:25:20.186Z,33.53
2022-11-07T18:30:18.422Z,33.42
2022-11-07T18:35:17.682Z,33.43
2022-11-07T18:40:18.662Z,33.95
2022-11-07T18:45:16.306Z,34.13
2022-11-07T18:50:15.481Z,32.82
2022-11-07T18:55:16.568Z,33.45
2022-11-07T19:00:14.520Z,33.36
2022-11-07T19:05:13.196Z,34.28
2022-11-07T19:10:12.292Z,32.75
2022-11-07T19:15:11.172Z,33.48
2022-11-07T19:20:11.696Z,33.98
2022-11-07T19:25:10.884Z,33.36
2022-11-07T19:30:09.351Z,33.65
2022-11-07T19:35:08.301Z,32.62
2022-11-07T19:40:07.821Z,33.20
2022-11-07T19:45:05.588Z,32.43
2022-11-07T19:50:06.745Z,32.43
2022-11-07T19:55:05.498Z,32.10
2022-11-07T20:00:04.650Z,32.75
2022-11-07T20:05:07.825Z,33.36
2022-11-07T20:10:04.104Z,33.58
2022-11-07T20:15:03.068Z,33.16
2022-11-07T20:20:06.137Z,33.08
2022-11-07T20:25:00.946Z,32.76
2022-11-07T20:30:00.267Z,33.29
2022-11-07T20:35:00.429Z,33.18
2022-11-07T20:39:57.610Z,32.36
2022-11-07T20:44:58.520Z,32.86
2022-11-07T20:49:57.233Z,33.15
2022-11-07T20:54:57.258Z,32.35
2022-11-07T20:59:55.371Z,31.51
2022-11-07T21:05:16.633Z,30.44
2022-11-07T21:09:54.985Z,29.07
2022-11-07T21:14:54.021Z,30.45
2022-11-07T21:19:53.412Z,30.68
2022-11-07T21:24:51.789Z,30.58
2022-11-07T21:29:51.579Z,31.09
2022-11-07T21:34:49.924Z,31.63
2022-11-07T21:39:49.051Z,32.22
2022-11-07T21:44:49.561Z,31.22
2022-11-07T21:49:46.787Z,32.00
2022-11-07T21:54:50.045Z,30.68
2022-11-07T21:59:46.243Z,30.13
2022-11-07T22:04:44.505Z,28.61
2022-11-07T22:09:45.646Z,28.76
2022-11-07T22:14:43.818Z,28.88
2022-11-07T22:19:42.999Z,29.58
2022-11-07T22:24:42.386Z,29.16
2022-11-07T22:29:40.600Z,28.53
2022-11-07T22:34:40.719Z,28.23
2022-11-07T22:39:39.939Z,27.45
2022-11-07T22:44:38.209Z,28.17
2022-11-07T22:49:39.441Z,27.76
2022-11-07T22:54:36.714Z,27.94
2022-11-07T22:59:36.965Z,27.42
2022-11-07T23:04:37.173Z,27.14
2022-11-07T23:09:35.438Z,27.86
2022-11-07T23:14:34.693Z,28.24
2022-11-07T23:19:34.879Z,27.93
2022-11-07T23:24:33.138Z,27.52
2022-11-07T23:29:31.413Z,26.81
2022-11-07T23:34:30.628Z,28.03
2022-11-07T23:39:30.906Z,28.53
2022-11-07T23:44:30.151Z,28.24
2022-11-07T23:49:28.395Z,27.93
2022-11-07T23:54:28.669Z,27.30
2022-11-07T23:59:26.991Z,27.42
